sensor_id;sensor_type;location;lat;lon;timestamp;P1;durP1;ratioP1;P2;durP2;ratioP2
21613;SDS011;10969;49.550;25.564;2022-10-19T00:01:39;5.03;;;1.52;;
21613;SDS011;10969;49.550;25.564;2022-10-19T00:04:06;3.00;;;1.50;;
21613;SDS011;10969;49.550;25.564;2022-10-19T00:06:33;4.20;;;2.80;;
21613;SDS011;10969;49.550;25.564;2022-10-19T00:09:04;1.35;;;1.25;;
21613;SDS011;10969;49.550;25.564;2022-10-19T00:11:30;2.83;;;2.42;;
21613;SDS011;10969;49.550;25.564;2022-10-19T00:13:57;6.18;;;2.70;;
21613;SDS011;10969;49.550;25.564;2022-10-19T00:16:24;4.22;;;1.73;;
21613;SDS011;10969;49.550;25.564;2022-10-19T00:18:50;1.85;;;1.52;;
21613;SDS011;10969;49.550;25.564;2022-10-19T00:21:18;2.47;;;2.28;;
21613;SDS011;10969;49.550;25.564;2022-10-19T00:23:44;4.07;;;2.63;;
21613;SDS011;10969;49.550;25.564;2022-10-19T00:26:11;1.60;;;1.48;;
21613;SDS011;10969;49.550;25.564;2022-10-19T00:28:37;7.60;;;2.97;;
21613;SDS011;10969;49.550;25.564;2022-10-19T00:31:04;4.45;;;2.63;;
21613;SDS011;10969;49.550;25.564;2022-10-19T00:33:31;4.60;;;1.98;;
21613;SDS011;10969;49.550;25.564;2022-10-19T00:35:57;2.53;;;1.52;;
21613;SDS011;10969;49.550;25.564;2022-10-19T00:38:23;3.08;;;1.98;;
21613;SDS011;10969;49.550;25.564;2022-10-19T00:40:49;2.08;;;1.98;;
21613;SDS011;10969;49.550;25.564;2022-10-19T00:43:16;3.53;;;2.03;;
21613;SDS011;10969;49.550;25.564;2022-10-19T00:45:43;1.25;;;1.20;;
21613;SDS011;10969;49.550;25.564;2022-10-19T00:48:09;2.55;;;1.48;;
21613;SDS011;10969;49.550;25.564;2022-10-19T00:50:37;1.40;;;1.30;;
21613;SDS011;10969;49.550;25.564;2022-10-19T00:53:03;4.32;;;2.08;;
21613;SDS011;10969;49.550;25.564;2022-10-19T00:55:30;3.15;;;1.92;;
21613;SDS011;10969;49.550;25.564;2022-10-19T00:57:56;2.03;;;1.58;;
21613;SDS011;10969;49.550;25.564;2022-10-19T01:00:22;4.88;;;2.55;;
21613;SDS011;10969;49.550;25.564;2022-10-19T01:02:48;1.77;;;1.55;;
21613;SDS011;10969;49.550;25.564;2022-10-19T01:05:14;3.80;;;2.60;;
21613;SDS011;10969;49.550;25.564;2022-10-19T01:07:40;4.82;;;2.60;;
21613;SDS011;10969;49.550;25.564;2022-10-19T01:10:06;6.15;;;2.22;;
21613;SDS011;10969;49.550;25.564;2022-10-19T01:15:25;2.75;;;2.10;;
21613;SDS011;10969;49.550;25.564;2022-10-19T01:17:59;4.53;;;2.47;;
21613;SDS011;10969;49.550;25.564;2022-10-19T01:23:12;3.33;;;3.00;;
21613;SDS011;10969;49.550;25.564;2022-10-19T01:39:02;2.95;;;2.53;;
21613;SDS011;10969;49.550;25.564;2022-10-19T01:41:32;6.93;;;4.20;;
21613;SDS011;10969;49.550;25.564;2022-10-19T01:46:29;11.27;;;3.88;;
21613;SDS011;10969;49.550;25.564;2022-10-19T01:49:00;8.32;;;3.05;;
21613;SDS011;10969;49.550;25.564;2022-10-19T01:51:29;6.60;;;2.72;;
21613;SDS011;10969;49.550;25.564;2022-10-19T01:53:56;6.28;;;4.03;;
21613;SDS011;10969;49.550;25.564;2022-10-19T01:56:24;6.05;;;3.83;;
21613;SDS011;10969;49.550;25.564;2022-10-19T01:58:51;5.40;;;2.63;;
21613;SDS011;10969;49.550;25.564;2022-10-19T02:01:18;4.22;;;3.33;;
21613;SDS011;10969;49.550;25.564;2022-10-19T02:03:47;7.18;;;3.47;;
21613;SDS011;10969;49.550;25.564;2022-10-19T02:06:14;5.57;;;3.25;;
21613;SDS011;10969;49.550;25.564;2022-10-19T02:08:43;3.40;;;3.05;;
21613;SDS011;10969;49.550;25.564;2022-10-19T02:11:11;11.82;;;3.90;;
21613;SDS011;10969;49.550;25.564;2022-10-19T02:13:38;7.13;;;3.60;;
21613;SDS011;10969;49.550;25.564;2022-10-19T02:16:05;6.68;;;3.35;;
21613;SDS011;10969;49.550;25.564;2022-10-19T02:18:33;5.88;;;3.42;;
21613;SDS011;10969;49.550;25.564;2022-10-19T02:21:02;4.97;;;3.75;;
21613;SDS011;10969;49.550;25.564;2022-10-19T02:23:28;6.47;;;2.38;;
21613;SDS011;10969;49.550;25.564;2022-10-19T02:25:55;5.82;;;3.22;;
21613;SDS011;10969;49.550;25.564;2022-10-19T02:28:21;4.82;;;3.42;;
21613;SDS011;10969;49.550;25.564;2022-10-19T02:30:47;3.95;;;2.75;;
21613;SDS011;10969;49.550;25.564;2022-10-19T02:33:14;7.35;;;3.08;;
21613;SDS011;10969;49.550;25.564;2022-10-19T02:35:40;7.25;;;3.08;;
21613;SDS011;10969;49.550;25.564;2022-10-19T02:38:06;5.25;;;3.65;;
21613;SDS011;10969;49.550;25.564;2022-10-19T02:40:36;4.82;;;3.00;;
21613;SDS011;10969;49.550;25.564;2022-10-19T02:43:03;5.35;;;3.53;;
21613;SDS011;10969;49.550;25.564;2022-10-19T02:45:31;3.88;;;2.72;;
21613;SDS011;10969;49.550;25.564;2022-10-19T02:48:07;7.95;;;3.35;;
21613;SDS011;10969;49.550;25.564;2022-10-19T02:50:34;7.45;;;2.88;;
21613;SDS011;10969;49.550;25.564;2022-10-19T02:53:00;4.82;;;3.15;;
21613;SDS011;10969;49.550;25.564;2022-10-19T02:55:27;4.30;;;2.10;;
21613;SDS011;10969;49.550;25.564;2022-10-19T02:57:53;5.55;;;2.85;;
21613;SDS011;10969;49.550;25.564;2022-10-19T03:00:19;2.13;;;1.85;;
21613;SDS011;10969;49.550;25.564;2022-10-19T03:02:45;5.93;;;2.72;;
21613;SDS011;10969;49.550;25.564;2022-10-19T03:05:12;6.13;;;3.25;;
21613;SDS011;10969;49.550;25.564;2022-10-19T03:07:38;4.05;;;2.92;;
21613;SDS011;10969;49.550;25.564;2022-10-19T03:10:05;3.65;;;1.85;;
21613;SDS011;10969;49.550;25.564;2022-10-19T03:12:31;2.22;;;2.03;;
21613;SDS011;10969;49.550;25.564;2022-10-19T03:14:57;2.40;;;1.67;;
21613;SDS011;10969;49.550;25.564;2022-10-19T03:17:23;2.40;;;1.95;;
21613;SDS011;10969;49.550;25.564;2022-10-19T03:19:49;2.13;;;1.98;;
21613;SDS011;10969;49.550;25.564;2022-10-19T03:22:16;4.22;;;2.15;;
21613;SDS011;10969;49.550;25.564;2022-10-19T03:24:43;3.88;;;1.88;;
21613;SDS011;10969;49.550;25.564;2022-10-19T03:27:09;6.80;;;2.10;;
21613;SDS011;10969;49.550;25.564;2022-10-19T03:29:36;0.38;;;0.38;;
21613;SDS011;10969;49.550;25.564;2022-10-19T03:32:02;1.25;;;0.93;;
21613;SDS011;10969;49.550;25.564;2022-10-19T03:34:28;4.13;;;1.98;;
21613;SDS011;10969;49.550;25.564;2022-10-19T03:36:54;2.28;;;1.23;;
21613;SDS011;10969;49.550;25.564;2022-10-19T03:39:23;2.72;;;1.88;;
21613;SDS011;10969;49.550;25.564;2022-10-19T03:41:49;2.38;;;1.55;;
21613;SDS011;10969;49.550;25.564;2022-10-19T03:44:16;2.08;;;1.42;;
21613;SDS011;10969;49.550;25.564;2022-10-19T03:46:42;4.97;;;2.00;;
21613;SDS011;10969;49.550;25.564;2022-10-19T03:49:08;1.77;;;1.23;;
21613;SDS011;10969;49.550;25.564;2022-10-19T03:51:35;1.05;;;1.05;;
21613;SDS011;10969;49.550;25.564;2022-10-19T03:54:06;1.02;;;1.00;;
21613;SDS011;10969;49.550;25.564;2022-10-19T03:56:33;1.70;;;1.40;;
21613;SDS011;10969;49.550;25.564;2022-10-19T03:59:00;1.13;;;1.13;;
21613;SDS011;10969;49.550;25.564;2022-10-19T04:01:27;1.17;;;1.10;;
21613;SDS011;10969;49.550;25.564;2022-10-19T04:03:55;5.25;;;1.65;;
21613;SDS011;10969;49.550;25.564;2022-10-19T04:06:23;1.73;;;1.63;;
21613;SDS011;10969;49.550;25.564;2022-10-19T04:08:49;3.17;;;1.55;;
21613;SDS011;10969;49.550;25.564;2022-10-19T04:11:16;4.25;;;2.45;;
21613;SDS011;10969;49.550;25.564;2022-10-19T04:13:42;2.20;;;1.88;;
21613;SDS011;10969;49.550;25.564;2022-10-19T04:16:09;2.70;;;1.85;;
21613;SDS011;10969;49.550;25.564;2022-10-19T04:18:38;0.77;;;0.77;;
21613;SDS011;10969;49.550;25.564;2022-10-19T04:21:04;0.98;;;0.73;;
21613;SDS011;10969;49.550;25.564;2022-10-19T04:23:32;0.90;;;0.55;;
21613;SDS011;10969;49.550;25.564;2022-10-19T04:26:06;0.80;;;0.80;;
21613;SDS011;10969;49.550;25.564;2022-10-19T04:28:32;1.17;;;0.80;;
21613;SDS011;10969;49.550;25.564;2022-10-19T04:31:05;0.30;;;0.30;;
21613;SDS011;10969;49.550;25.564;2022-10-19T04:33:32;1.42;;;0.95;;
21613;SDS011;10969;49.550;25.564;2022-10-19T04:36:03;1.20;;;1.10;;
21613;SDS011;10969;49.550;25.564;2022-10-19T04:38:29;1.80;;;1.33;;
21613;SDS011;10969;49.550;25.564;2022-10-19T04:40:55;1.85;;;0.73;;
21613;SDS011;10969;49.550;25.564;2022-10-19T04:43:21;0.30;;;0.30;;
21613;SDS011;10969;49.550;25.564;2022-10-19T04:45:47;0.30;;;0.30;;
21613;SDS011;10969;49.550;25.564;2022-10-19T04:48:13;0.40;;;0.40;;
21613;SDS011;10969;49.550;25.564;2022-10-19T04:50:39;0.20;;;0.20;;
21613;SDS011;10969;49.550;25.564;2022-10-19T04:53:05;0.80;;;0.80;;
21613;SDS011;10969;49.550;25.564;2022-10-19T04:55:31;0.20;;;0.20;;
21613;SDS011;10969;49.550;25.564;2022-10-19T04:57:57;0.63;;;0.60;;
21613;SDS011;10969;49.550;25.564;2022-10-19T05:00:23;0.47;;;0.47;;
21613;SDS011;10969;49.550;25.564;2022-10-19T05:02:49;0.52;;;0.47;;
21613;SDS011;10969;49.550;25.564;2022-10-19T05:05:15;0.20;;;0.20;;
21613;SDS011;10969;49.550;25.564;2022-10-19T05:07:41;0.88;;;0.80;;
21613;SDS011;10969;49.550;25.564;2022-10-19T05:10:08;0.40;;;0.40;;
21613;SDS011;10969;49.550;25.564;2022-10-19T05:12:34;1.10;;;0.63;;
21613;SDS011;10969;49.550;25.564;2022-10-19T05:15:00;0.57;;;0.55;;
21613;SDS011;10969;49.550;25.564;2022-10-19T05:17:30;0.98;;;0.52;;
21613;SDS011;10969;49.550;25.564;2022-10-19T05:19:58;2.08;;;0.90;;
21613;SDS011;10969;49.550;25.564;2022-10-19T05:22:24;0.25;;;0.25;;
21613;SDS011;10969;49.550;25.564;2022-10-19T05:24:52;1.17;;;0.70;;
21613;SDS011;10969;49.550;25.564;2022-10-19T05:27:19;0.50;;;0.40;;
21613;SDS011;10969;49.550;25.564;2022-10-19T05:29:46;0.43;;;0.43;;
21613;SDS011;10969;49.550;25.564;2022-10-19T05:32:12;0.55;;;0.55;;
21613;SDS011;10969;49.550;25.564;2022-10-19T05:34:38;0.60;;;0.60;;
21613;SDS011;10969;49.550;25.564;2022-10-19T05:37:04;0.32;;;0.32;;
21613;SDS011;10969;49.550;25.564;2022-10-19T05:39:30;0.73;;;0.68;;
21613;SDS011;10969;49.550;25.564;2022-10-19T05:41:56;3.90;;;0.60;;
21613;SDS011;10969;49.550;25.564;2022-10-19T05:44:22;0.73;;;0.70;;
21613;SDS011;10969;49.550;25.564;2022-10-19T05:46:48;1.55;;;1.45;;
21613;SDS011;10969;49.550;25.564;2022-10-19T05:49:15;0.45;;;0.45;;
21613;SDS011;10969;49.550;25.564;2022-10-19T05:51:43;1.60;;;1.50;;
21613;SDS011;10969;49.550;25.564;2022-10-19T05:54:09;0.85;;;0.85;;
21613;SDS011;10969;49.550;25.564;2022-10-19T05:56:35;2.40;;;1.52;;
21613;SDS011;10969;49.550;25.564;2022-10-19T05:59:04;1.45;;;1.23;;
21613;SDS011;10969;49.550;25.564;2022-10-19T06:01:30;2.00;;;1.90;;
21613;SDS011;10969;49.550;25.564;2022-10-19T06:03:57;0.93;;;0.90;;
21613;SDS011;10969;49.550;25.564;2022-10-19T06:06:24;1.08;;;0.98;;
21613;SDS011;10969;49.550;25.564;2022-10-19T06:08:51;3.42;;;2.38;;
21613;SDS011;10969;49.550;25.564;2022-10-19T06:13:44;3.13;;;2.13;;
21613;SDS011;10969;49.550;25.564;2022-10-19T06:16:11;6.90;;;2.90;;
21613;SDS011;10969;49.550;25.564;2022-10-19T06:18:38;3.00;;;1.67;;
21613;SDS011;10969;49.550;25.564;2022-10-19T06:21:05;4.60;;;2.22;;
21613;SDS011;10969;49.550;25.564;2022-10-19T06:23:32;2.42;;;2.22;;
21613;SDS011;10969;49.550;25.564;2022-10-19T06:26:00;5.20;;;2.08;;
21613;SDS011;10969;49.550;25.564;2022-10-19T06:28:27;3.22;;;1.67;;
21613;SDS011;10969;49.550;25.564;2022-10-19T06:30:53;5.30;;;1.65;;
21613;SDS011;10969;49.550;25.564;2022-10-19T06:33:19;1.40;;;1.30;;
21613;SDS011;10969;49.550;25.564;2022-10-19T06:35:45;2.35;;;1.42;;
21613;SDS011;10969;49.550;25.564;2022-10-19T06:38:11;2.47;;;1.75;;
21613;SDS011;10969;49.550;25.564;2022-10-19T06:40:37;3.70;;;1.98;;
21613;SDS011;10969;49.550;25.564;2022-10-19T06:43:03;1.50;;;1.25;;
21613;SDS011;10969;49.550;25.564;2022-10-19T06:45:29;0.93;;;0.93;;
21613;SDS011;10969;49.550;25.564;2022-10-19T06:47:55;1.40;;;1.00;;
21613;SDS011;10969;49.550;25.564;2022-10-19T06:50:21;1.73;;;1.25;;
21613;SDS011;10969;49.550;25.564;2022-10-19T06:52:47;2.00;;;1.80;;
21613;SDS011;10969;49.550;25.564;2022-10-19T06:55:14;1.50;;;1.40;;
21613;SDS011;10969;49.550;25.564;2022-10-19T06:57:42;4.22;;;1.50;;
21613;SDS011;10969;49.550;25.564;2022-10-19T07:00:09;2.50;;;1.65;;
21613;SDS011;10969;49.550;25.564;2022-10-19T07:02:35;1.80;;;1.35;;
21613;SDS011;10969;49.550;25.564;2022-10-19T07:05:01;3.80;;;1.63;;
21613;SDS011;10969;49.550;25.564;2022-10-19T07:07:27;1.02;;;1.02;;
21613;SDS011;10969;49.550;25.564;2022-10-19T07:09:53;1.17;;;1.13;;
21613;SDS011;10969;49.550;25.564;2022-10-19T07:12:19;1.30;;;1.15;;
21613;SDS011;10969;49.550;25.564;2022-10-19T07:14:46;2.20;;;1.63;;
21613;SDS011;10969;49.550;25.564;2022-10-19T07:17:12;1.65;;;1.23;;
21613;SDS011;10969;49.550;25.564;2022-10-19T07:19:39;2.67;;;1.48;;
